createdAt,value
2023-07-18T00:02:09.268Z,1.98
2023-07-18T00:04:37.727Z,2.15
2023-07-18T00:07:07.106Z,2.00
2023-07-18T00:09:37.164Z,1.85
2023-07-18T00:12:07.176Z,2.08
2023-07-18T00:14:35.804Z,2.15
2023-07-18T00:17:04.151Z,2.38
2023-07-18T00:19:34.900Z,2.13
2023-07-18T00:22:03.354Z,2.20
2023-07-18T00:24:31.986Z,2.67
2023-07-18T00:27:02.434Z,2.63
2023-07-18T00:29:30.976Z,2.63
2023-07-18T00:31:59.171Z,2.58
2023-07-18T00:34:27.456Z,1.83
2023-07-18T00:36:57.205Z,2.50
2023-07-18T00:42:11.341Z,2.63
2023-07-18T00:44:39.585Z,3.17
2023-07-18T00:47:09.929Z,2.67
2023-07-18T00:49:38.352Z,2.40
2023-07-18T00:52:09.023Z,2.75
2023-07-18T00:54:38.236Z,3.38
2023-07-18T00:57:10.263Z,2.45
2023-07-18T00:59:40.245Z,2.90
2023-07-18T01:02:09.260Z,2.53
2023-07-18T01:04:38.923Z,2.60
2023-07-18T01:07:09.351Z,2.83
2023-07-18T01:09:37.352Z,3.08
2023-07-18T01:12:06.211Z,2.45
2023-07-18T01:14:34.408Z,3.47
2023-07-18T01:17:04.230Z,2.95
2023-07-18T01:19:33.207Z,2.95
2023-07-18T01:22:03.857Z,3.60
2023-07-18T01:24:33.273Z,3.17
2023-07-18T01:27:01.111Z,2.97
2023-07-18T01:29:29.096Z,2.72
2023-07-18T01:31:57.465Z,3.63
2023-07-18T01:34:25.871Z,3.58
2023-07-18T01:36:54.012Z,3.63
2023-07-18T01:39:23.741Z,3.72
2023-07-18T01:41:51.884Z,3.03
2023-07-18T01:44:21.047Z,3.53
2023-07-18T01:46:50.975Z,3.55
2023-07-18T01:49:19.067Z,3.90
2023-07-18T01:51:47.298Z,3.88
2023-07-18T01:54:15.287Z,3.80
2023-07-18T01:56:44.618Z,3.30
2023-07-18T01:59:12.726Z,3.72
2023-07-18T02:01:41.716Z,4.35
2023-07-18T02:04:09.977Z,4.20
2023-07-18T02:06:37.851Z,3.50
2023-07-18T02:09:06.575Z,3.80
2023-07-18T02:11:35.264Z,3.78
2023-07-18T02:14:04.929Z,4.38
2023-07-18T02:16:33.607Z,3.90
2023-07-18T02:19:03.116Z,4.40
2023-07-18T02:21:33.933Z,3.65
2023-07-18T02:24:02.026Z,3.88
2023-07-18T02:26:30.821Z,4.40
2023-07-18T02:28:58.972Z,3.92
2023-07-18T02:31:28.397Z,4.57
2023-07-18T02:33:59.036Z,3.58
2023-07-18T02:36:27.176Z,4.43
2023-07-18T02:38:55.349Z,3.65
2023-07-18T02:41:23.536Z,3.97
2023-07-18T02:43:51.784Z,3.70
2023-07-18T02:46:19.813Z,3.85
2023-07-18T02:48:49.300Z,3.90
2023-07-18T02:51:21.759Z,3.83
2023-07-18T02:53:51.528Z,3.70
2023-07-18T02:56:20.289Z,4.18
2023-07-18T02:58:48.918Z,3.58
2023-07-18T03:01:20.139Z,3.75
2023-07-18T03:03:50.341Z,3.75
2023-07-18T03:06:20.066Z,3.47
2023-07-18T03:08:48.354Z,3.65
2023-07-18T03:11:17.380Z,3.92
2023-07-18T03:13:46.008Z,3.47
2023-07-18T03:16:15.293Z,4.60
2023-07-18T03:18:43.979Z,3.50
2023-07-18T03:21:13.563Z,4.07
2023-07-18T03:23:41.846Z,3.50
2023-07-18T03:26:10.192Z,3.42
2023-07-18T03:28:38.256Z,3.65
2023-07-18T03:31:08.260Z,4.22
2023-07-18T03:33:37.794Z,3.92
2023-07-18T03:36:06.677Z,3.80
2023-07-18T03:38:36.701Z,4.38
2023-07-18T03:41:05.230Z,4.03
2023-07-18T03:43:33.796Z,4.00
2023-07-18T03:46:01.747Z,4.07
2023-07-18T03:48:29.879Z,4.03
2023-07-18T03:50:58.922Z,3.80
2023-07-18T03:53:27.593Z,4.32
2023-07-18T03:56:04.053Z,3.83
2023-07-18T03:58:32.313Z,3.90
2023-07-18T04:01:00.280Z,3.80
2023-07-18T04:03:28.547Z,3.95
2023-07-18T04:05:56.924Z,4.43
2023-07-18T04:08:25.492Z,4.13
2023-07-18T04:10:53.369Z,4.35
2023-07-18T04:13:23.290Z,4.20
2023-07-18T04:15:51.253Z,4.93
2023-07-18T04:18:20.191Z,4.30
2023-07-18T04:20:50.271Z,4.70
2023-07-18T04:23:19.567Z,5.10
2023-07-18T04:25:59.101Z,5.15
2023-07-18T04:28:30.452Z,4.30
2023-07-18T04:30:58.695Z,4.25
2023-07-18T04:33:27.104Z,3.90
2023-07-18T04:35:55.410Z,5.22
2023-07-18T04:38:23.585Z,4.53
2023-07-18T04:40:51.993Z,4.75
2023-07-18T04:43:20.462Z,4.82
2023-07-18T04:45:50.485Z,4.25
2023-07-18T04:48:20.601Z,4.40
2023-07-18T04:50:51.552Z,4.32
2023-07-18T04:53:20.051Z,5.20
2023-07-18T04:55:52.339Z,5.32
2023-07-18T04:58:21.167Z,4.40
2023-07-18T05:00:50.719Z,4.22
2023-07-18T05:03:18.832Z,4.00
2023-07-18T05:05:47.164Z,4.43
2023-07-18T05:08:18.481Z,4.10
2023-07-18T05:10:46.843Z,4.15
2023-07-18T05:13:17.111Z,5.20
2023-07-18T05:15:47.719Z,4.50
2023-07-18T05:18:17.933Z,4.97
2023-07-18T05:20:46.114Z,4.53
2023-07-18T05:23:14.314Z,4.60
2023-07-18T05:25:42.509Z,3.90
2023-07-18T05:28:10.686Z,4.72
2023-07-18T05:30:38.720Z,3.97
2023-07-18T05:33:06.968Z,4.55
2023-07-18T05:35:38.356Z,4.50
2023-07-18T05:38:06.685Z,4.80
2023-07-18T05:40:35.935Z,4.30
2023-07-18T05:43:04.239Z,3.90
2023-07-18T05:45:32.589Z,4.22
2023-07-18T05:48:01.385Z,3.55
2023-07-18T05:50:29.636Z,5.05
2023-07-18T05:52:59.278Z,3.90
2023-07-18T05:55:28.834Z,3.65
2023-07-18T05:57:57.558Z,4.05
2023-07-18T06:00:26.863Z,3.90
2023-07-18T06:02:58.359Z,3.38
2023-07-18T06:05:27.374Z,3.90
2023-07-18T06:07:55.274Z,3.95
2023-07-18T06:10:24.789Z,4.43
2023-07-18T06:12:52.792Z,4.50
2023-07-18T06:15:21.639Z,3.92
2023-07-18T06:17:50.316Z,3.65
2023-07-18T06:20:22.326Z,3.63
2023-07-18T06:22:50.791Z,3.65
2023-07-18T06:25:20.007Z,5.07
2023-07-18T06:27:49.658Z,3.50
2023-07-18T06:30:18.197Z,3.38
2023-07-18T06:32:46.511Z,3.08
2023-07-18T06:35:23.835Z,3.53
2023-07-18T06:37:52.598Z,3.72
2023-07-18T06:40:20.912Z,3.90
2023-07-18T06:42:51.461Z,3.30
2023-07-18T06:45:19.945Z,3.50
2023-07-18T06:47:48.385Z,3.58
2023-07-18T06:50:16.534Z,3.88
2023-07-18T06:52:45.154Z,3.28
2023-07-18T06:55:13.787Z,3.70
2023-07-18T06:57:44.640Z,3.38
2023-07-18T07:00:16.096Z,3.80
2023-07-18T07:02:45.504Z,3.55
2023-07-18T07:05:14.329Z,3.85
2023-07-18T07:07:42.970Z,3.17
2023-07-18T07:10:11.246Z,3.10
2023-07-18T07:12:39.663Z,3.03
2023-07-18T07:15:08.805Z,2.55
2023-07-18T07:17:38.840Z,2.88
2023-07-18T07:20:08.414Z,3.03
2023-07-18T07:22:38.646Z,3.10
2023-07-18T07:25:07.912Z,3.00
2023-07-18T07:27:36.013Z,3.13
2023-07-18T07:30:04.065Z,3.28
2023-07-18T07:32:32.688Z,2.65
2023-07-18T07:35:02.144Z,2.78
2023-07-18T07:37:30.478Z,3.00
2023-07-18T07:39:58.648Z,3.03
2023-07-18T07:42:26.636Z,2.97
2023-07-18T07:44:55.160Z,2.92
2023-07-18T07:47:23.351Z,3.45
2023-07-18T07:49:51.605Z,2.92
2023-07-18T07:52:23.636Z,3.03
2023-07-18T07:54:51.904Z,2.57
2023-07-18T07:57:20.154Z,3.40
2023-07-18T07:59:49.223Z,2.97
2023-07-18T08:02:17.519Z,3.03
2023-07-18T08:04:46.751Z,2.67
2023-07-18T08:07:16.141Z,2.75
2023-07-18T08:09:47.205Z,2.60
2023-07-18T08:12:17.444Z,2.10
2023-07-18T08:14:45.882Z,2.85
2023-07-18T08:17:13.855Z,2.78
2023-07-18T08:19:41.981Z,2.50
2023-07-18T08:22:10.757Z,2.38
2023-07-18T08:24:39.102Z,2.60
2023-07-18T08:27:09.247Z,2.97
2023-07-18T08:29:37.368Z,2.45
2023-07-18T08:32:06.344Z,2.75
2023-07-18T08:34:35.996Z,2.72
2023-07-18T08:37:06.648Z,2.33
2023-07-18T08:39:35.040Z,2.20
2023-07-18T08:42:08.713Z,2.70
2023-07-18T08:44:37.676Z,2.10
2023-07-18T08:47:07.984Z,2.72
2023-07-18T08:49:37.685Z,2.70
2023-07-18T08:52:07.691Z,2.22
2023-07-18T08:54:36.618Z,2.78
2023-07-18T08:57:04.969Z,2.33
2023-07-18T08:59:34.648Z,2.30
2023-07-18T09:02:02.826Z,2.28
2023-07-18T09:04:33.440Z,2.17
2023-07-18T09:07:04.015Z,2.38
2023-07-18T09:09:31.978Z,2.13
2023-07-18T09:12:04.771Z,2.67
2023-07-18T09:14:38.331Z,2.33
2023-07-18T09:19:42.961Z,2.15
2023-07-18T09:22:12.915Z,2.80
2023-07-18T09:24:43.680Z,2.25
2023-07-18T09:27:17.686Z,2.45
2023-07-18T09:29:48.567Z,2.35
2023-07-18T09:32:20.114Z,3.08
2023-07-18T09:34:55.075Z,2.03
2023-07-18T09:37:24.491Z,2.08
2023-07-18T09:39:53.682Z,1.77
2023-07-18T09:42:23.963Z,1.92
2023-07-18T09:47:32.629Z,2.03
2023-07-18T09:50:03.535Z,1.70
2023-07-18T09:52:36.950Z,2.00
2023-07-18T09:55:08.153Z,2.75
2023-07-18T09:57:38.634Z,2.05
2023-07-18T10:00:12.953Z,2.08
2023-07-18T10:02:42.449Z,2.00
2023-07-18T10:05:12.198Z,2.70
2023-07-18T10:07:41.731Z,2.05
2023-07-18T10:10:11.960Z,3.08
2023-07-18T10:12:59.099Z,4.97
2023-07-18T10:15:30.031Z,2.63
2023-07-18T10:18:18.761Z,2.05
2023-07-18T10:21:00.403Z,2.35
2023-07-18T10:23:43.320Z,1.70
2023-07-18T10:26:11.569Z,2.42
2023-07-18T10:28:47.313Z,2.10
2023-07-18T10:31:35.912Z,2.22
2023-07-18T10:34:12.184Z,2.08
2023-07-18T10:36:42.155Z,2.15
2023-07-18T10:39:14.006Z,2.00
2023-07-18T10:41:45.498Z,1.98
2023-07-18T10:44:15.840Z,1.90
2023-07-18T10:46:46.958Z,2.30
2023-07-18T10:49:15.108Z,1.90
2023-07-18T10:51:43.607Z,1.92
2023-07-18T10:54:12.935Z,2.00
2023-07-18T10:56:41.044Z,1.80
2023-07-18T10:59:09.102Z,1.80
2023-07-18T11:01:38.389Z,2.20
2023-07-18T11:04:11.206Z,1.80
2023-07-18T11:06:43.713Z,2.17
2023-07-18T11:11:41.893Z,2.42
2023-07-18T11:14:10.425Z,2.33
2023-07-18T11:16:39.085Z,2.20
2023-07-18T11:19:10.750Z,2.47
2023-07-18T11:21:39.714Z,1.95
2023-07-18T11:24:08.771Z,1.80
2023-07-18T11:26:36.988Z,1.95
2023-07-18T11:29:06.752Z,2.30
2023-07-18T11:31:42.800Z,2.03
2023-07-18T11:34:25.096Z,2.28
2023-07-18T11:36:56.491Z,2.22
2023-07-18T11:39:25.728Z,1.70
2023-07-18T11:42:06.904Z,2.25
2023-07-18T11:44:35.110Z,1.77
2023-07-18T11:47:03.236Z,1.90
2023-07-18T11:49:37.305Z,2.05
2023-07-18T11:52:07.250Z,1.73
2023-07-18T11:54:36.542Z,2.33
2023-07-18T11:57:05.887Z,2.08
2023-07-18T11:59:34.359Z,1.98
2023-07-18T12:02:04.283Z,2.05
2023-07-18T12:04:32.679Z,1.90
2023-07-18T12:07:02.210Z,1.70
2023-07-18T12:09:30.372Z,2.40
2023-07-18T12:11:58.395Z,1.98
2023-07-18T12:14:26.572Z,2.15
2023-07-18T12:16:55.160Z,1.85
2023-07-18T12:19:24.513Z,1.95
2023-07-18T12:21:52.671Z,2.20
2023-07-18T12:24:22.423Z,2.58
2023-07-18T12:26:50.374Z,3.63
2023-07-18T12:29:19.795Z,5.95
2023-07-18T12:31:52.912Z,4.45
2023-07-18T12:34:21.913Z,2.40
2023-07-18T12:36:50.584Z,2.05
2023-07-18T12:39:19.477Z,1.83
2023-07-18T12:41:49.062Z,2.38
2023-07-18T12:44:19.737Z,2.38
2023-07-18T12:46:47.936Z,1.98
2023-07-18T12:52:05.301Z,2.00
2023-07-18T12:54:33.980Z,2.03
2023-07-18T12:57:03.741Z,2.53
2023-07-18T12:59:32.411Z,2.30
2023-07-18T13:02:01.134Z,2.00
2023-07-18T13:04:29.954Z,2.00
2023-07-18T13:06:58.341Z,2.83
2023-07-18T13:09:26.606Z,2.65
2023-07-18T13:12:02.314Z,2.63
2023-07-18T13:14:31.605Z,2.80
2023-07-18T13:16:59.752Z,3.13
2023-07-18T13:19:28.192Z,2.40
2023-07-18T13:22:01.260Z,2.60
2023-07-18T13:24:29.714Z,2.67
2023-07-18T13:26:58.084Z,2.10
2023-07-18T13:29:26.179Z,2.83
2023-07-18T13:31:56.064Z,2.42
2023-07-18T13:34:24.193Z,2.97
2023-07-18T13:36:52.389Z,2.72
2023-07-18T13:39:20.408Z,2.83
2023-07-18T13:41:49.140Z,2.47
2023-07-18T13:44:17.572Z,2.50
2023-07-18T13:46:46.114Z,2.50
2023-07-18T13:49:15.881Z,2.33
2023-07-18T13:51:45.660Z,2.80
2023-07-18T13:54:13.971Z,3.15
2023-07-18T13:56:42.254Z,2.28
2023-07-18T13:59:10.666Z,2.53
2023-07-18T14:01:41.458Z,2.35
2023-07-18T14:04:12.718Z,2.38
2023-07-18T14:06:42.728Z,2.43
2023-07-18T14:09:11.014Z,2.63
2023-07-18T14:11:39.077Z,2.63
2023-07-18T14:14:07.424Z,2.58
2023-07-18T14:16:36.216Z,2.40
2023-07-18T14:19:04.553Z,2.67
2023-07-18T14:21:33.034Z,2.47
2023-07-18T14:24:06.230Z,2.80
2023-07-18T14:26:34.590Z,2.33
2023-07-18T14:29:02.657Z,2.42
2023-07-18T14:31:31.009Z,2.13
2023-07-18T14:34:06.797Z,2.42
2023-07-18T14:36:37.229Z,2.40
2023-07-18T14:39:07.403Z,2.70
2023-07-18T14:41:35.800Z,2.97
2023-07-18T14:44:04.021Z,2.53
2023-07-18T14:46:35.218Z,2.47
2023-07-18T14:49:04.010Z,3.58
2023-07-18T14:51:33.629Z,3.38
2023-07-18T14:54:01.758Z,2.17
2023-07-18T14:56:32.829Z,2.65
2023-07-18T14:59:00.758Z,2.50
2023-07-18T15:01:30.014Z,2.53
2023-07-18T15:03:58.426Z,2.20
2023-07-18T15:06:26.942Z,2.42
2023-07-18T15:08:56.253Z,2.20
2023-07-18T15:11:24.911Z,2.40
2023-07-18T15:13:54.415Z,2.28
2023-07-18T15:16:23.450Z,2.50
2023-07-18T15:18:53.349Z,2.63
2023-07-18T15:21:21.376Z,1.90
2023-07-18T15:23:49.379Z,4.70
2023-07-18T15:26:17.812Z,2.40
2023-07-18T15:28:46.370Z,2.33
2023-07-18T15:31:16.569Z,2.50
2023-07-18T15:33:46.307Z,2.67
2023-07-18T15:36:14.589Z,2.50
2023-07-18T15:38:46.374Z,2.28
2023-07-18T15:41:15.145Z,2.13
2023-07-18T15:43:43.935Z,2.50
2023-07-18T15:46:12.853Z,2.42
2023-07-18T15:48:45.292Z,2.30
2023-07-18T15:51:13.642Z,2.90
2023-07-18T15:53:41.753Z,2.30
2023-07-18T15:56:15.673Z,2.50
2023-07-18T15:58:43.987Z,2.30
2023-07-18T16:01:12.255Z,2.67
2023-07-18T16:03:42.218Z,2.45
2023-07-18T16:06:10.472Z,2.60
2023-07-18T16:08:38.757Z,2.53
2023-07-18T16:11:07.081Z,2.55
2023-07-18T16:13:36.387Z,2.60
2023-07-18T16:16:05.367Z,2.25
2023-07-18T16:18:33.506Z,2.60
2023-07-18T16:21:03.178Z,2.30
2023-07-18T16:23:31.168Z,2.10
2023-07-18T16:25:59.103Z,2.80
2023-07-18T16:28:27.423Z,2.63
2023-07-18T16:30:57.561Z,2.60
2023-07-18T16:33:25.760Z,2.20
2023-07-18T16:35:53.964Z,2.60
2023-07-18T16:38:24.436Z,2.40
2023-07-18T16:40:52.433Z,2.35
2023-07-18T16:43:21.223Z,2.92
2023-07-18T16:45:51.802Z,2.97
2023-07-18T16:48:20.311Z,2.50
2023-07-18T16:50:49.311Z,2.47
2023-07-18T16:53:17.392Z,2.30
2023-07-18T16:55:46.867Z,2.33
2023-07-18T16:58:16.338Z,2.50
2023-07-18T17:00:45.078Z,2.40
2023-07-18T17:03:13.277Z,5.07
2023-07-18T17:05:43.969Z,2.80
2023-07-18T17:08:12.171Z,2.13
2023-07-18T17:10:43.792Z,2.67
2023-07-18T17:13:13.385Z,2.75
2023-07-18T17:15:41.688Z,2.30
2023-07-18T17:18:10.531Z,2.83
2023-07-18T17:20:39.221Z,2.67
2023-07-18T17:23:07.851Z,3.47
2023-07-18T17:25:36.382Z,7.07
2023-07-18T17:28:04.532Z,3.03
2023-07-18T17:30:36.843Z,3.20
2023-07-18T17:33:05.662Z,2.70
2023-07-18T17:35:34.912Z,2.65
2023-07-18T17:38:04.121Z,3.05
2023-07-18T17:40:32.174Z,2.80
2023-07-18T17:43:03.222Z,2.72
2023-07-18T17:45:35.202Z,2.70
2023-07-18T17:48:03.965Z,2.20
2023-07-18T17:50:32.096Z,2.55
2023-07-18T17:53:00.089Z,3.30
2023-07-18T17:55:28.788Z,2.92
2023-07-18T17:57:58.094Z,2.50
2023-07-18T18:00:26.595Z,3.22
2023-07-18T18:02:56.818Z,3.13
2023-07-18T18:05:36.458Z,2.97
2023-07-18T18:08:06.261Z,2.60
2023-07-18T18:10:34.787Z,2.90
2023-07-18T18:13:03.069Z,2.90
2023-07-18T18:15:31.642Z,2.80
2023-07-18T18:18:02.253Z,2.80
2023-07-18T18:20:30.777Z,3.08
2023-07-18T18:22:59.129Z,2.83
2023-07-18T18:25:28.162Z,2.90
2023-07-18T18:27:56.762Z,2.50
2023-07-18T18:30:26.005Z,2.70
2023-07-18T18:32:54.710Z,2.90
2023-07-18T18:35:24.194Z,3.60
2023-07-18T18:37:52.236Z,3.00
2023-07-18T18:40:20.681Z,2.67
2023-07-18T18:42:51.007Z,2.95
2023-07-18T18:45:19.445Z,2.67
2023-07-18T18:47:49.876Z,2.60
2023-07-18T18:50:19.959Z,2.88
2023-07-18T18:52:50.225Z,2.60
2023-07-18T18:55:20.697Z,2.80
2023-07-18T18:57:49.748Z,3.00
2023-07-18T19:00:19.156Z,2.92
2023-07-18T19:02:47.465Z,2.58
2023-07-18T19:05:17.898Z,3.15
2023-07-18T19:07:46.607Z,3.10
2023-07-18T19:10:16.567Z,2.95
2023-07-18T19:12:47.094Z,3.63
2023-07-18T19:15:15.358Z,2.88
2023-07-18T19:17:43.444Z,3.05
2023-07-18T19:20:12.738Z,3.20
2023-07-18T19:22:41.118Z,2.95
2023-07-18T19:25:09.905Z,3.67
2023-07-18T19:27:39.980Z,3.33
2023-07-18T19:30:11.262Z,3.58
2023-07-18T19:32:42.014Z,3.80
2023-07-18T19:35:10.351Z,3.63
2023-07-18T19:37:38.550Z,3.78
2023-07-18T19:40:08.034Z,3.90
2023-07-18T19:42:35.942Z,3.80
2023-07-18T19:45:05.685Z,3.53
2023-07-18T19:47:34.213Z,3.60
2023-07-18T19:50:03.452Z,3.25
2023-07-18T19:52:31.632Z,4.07
2023-07-18T19:55:00.129Z,3.28
2023-07-18T19:57:28.460Z,3.38
2023-07-18T19:59:56.738Z,4.07
2023-07-18T20:02:26.504Z,4.35
2023-07-18T20:04:54.545Z,3.42
2023-07-18T20:07:22.536Z,3.92
2023-07-18T20:09:50.956Z,3.88
2023-07-18T20:12:20.309Z,4.20
2023-07-18T20:14:48.552Z,3.90
2023-07-18T20:17:16.853Z,3.45
2023-07-18T20:19:46.536Z,3.35
2023-07-18T20:22:15.814Z,4.28
2023-07-18T20:24:44.143Z,4.40
2023-07-18T20:27:12.116Z,3.92
2023-07-18T20:29:40.688Z,4.43
2023-07-18T20:32:08.901Z,3.90
2023-07-18T20:34:37.636Z,4.10
2023-07-18T20:37:07.987Z,3.97
2023-07-18T20:39:36.332Z,3.95
2023-07-18T20:42:06.887Z,3.70
2023-07-18T20:44:35.261Z,4.03
2023-07-18T20:47:05.046Z,4.30
2023-07-18T20:49:33.120Z,4.00
2023-07-18T20:52:01.380Z,3.83
2023-07-18T20:54:33.668Z,3.92
2023-07-18T20:57:04.323Z,4.18
2023-07-18T20:59:34.019Z,4.07
2023-07-18T21:02:02.385Z,3.88
2023-07-18T21:04:30.664Z,4.00
2023-07-18T21:06:58.902Z,4.10
2023-07-18T21:09:27.006Z,4.20
2023-07-18T21:11:56.341Z,4.38
2023-07-18T21:14:25.330Z,4.07
2023-07-18T21:16:53.863Z,4.20
2023-07-18T21:19:22.031Z,4.32
2023-07-18T21:21:50.489Z,4.78
2023-07-18T21:24:19.463Z,4.55
2023-07-18T21:26:47.865Z,3.92
2023-07-18T21:29:20.143Z,4.53
2023-07-18T21:31:48.541Z,4.55
2023-07-18T21:34:16.612Z,4.55
2023-07-18T21:36:44.633Z,4.22
2023-07-18T21:39:12.619Z,5.25
2023-07-18T21:41:40.824Z,4.50
2023-07-18T21:44:09.271Z,4.05
2023-07-18T21:46:39.046Z,4.20
2023-07-18T21:49:07.558Z,3.92
2023-07-18T21:51:35.510Z,4.25
2023-07-18T21:54:03.621Z,5.07
2023-07-18T21:56:32.726Z,4.03
2023-07-18T21:59:01.243Z,4.20
2023-07-18T22:01:34.838Z,3.97
2023-07-18T22:04:05.151Z,4.65
2023-07-18T22:06:33.588Z,4.70
2023-07-18T22:09:03.990Z,3.70
2023-07-18T22:11:33.726Z,4.03
2023-07-18T22:14:03.474Z,4.35
2023-07-18T22:16:32.037Z,4.95
2023-07-18T22:19:02.531Z,4.60
2023-07-18T22:21:32.529Z,4.10
2023-07-18T22:24:02.235Z,4.72
2023-07-18T22:26:30.727Z,4.43
2023-07-18T22:28:58.797Z,4.90
2023-07-18T22:31:27.033Z,5.00
2023-07-18T22:33:55.546Z,4.60
2023-07-18T22:36:23.996Z,4.68
2023-07-18T22:38:53.906Z,5.25
2023-07-18T22:41:22.278Z,4.65
2023-07-18T22:43:50.941Z,4.88
2023-07-18T22:46:19.174Z,4.90
2023-07-18T22:48:47.573Z,4.78
2023-07-18T22:51:15.949Z,4.75
2023-07-18T22:53:44.195Z,4.97
2023-07-18T22:56:15.467Z,5.40
2023-07-18T22:58:44.073Z,5.05
2023-07-18T23:01:12.380Z,4.65
2023-07-18T23:03:40.811Z,5.13
2023-07-18T23:06:09.215Z,4.93
2023-07-18T23:08:37.717Z,4.82
2023-07-18T23:11:06.113Z,4.97
2023-07-18T23:13:35.470Z,4.63
2023-07-18T23:16:03.421Z,5.28
2023-07-18T23:18:31.531Z,5.00
2023-07-18T23:21:00.029Z,5.15
2023-07-18T23:23:28.269Z,5.25
2023-07-18T23:25:56.490Z,4.68
2023-07-18T23:28:26.149Z,5.45
2023-07-18T23:30:56.075Z,5.70
2023-07-18T23:33:24.214Z,5.70
2023-07-18T23:35:52.483Z,5.45
2023-07-18T23:38:21.031Z,5.07
2023-07-18T23:40:49.554Z,4.97
2023-07-18T23:43:17.832Z,5.60
2023-07-18T23:45:46.000Z,4.70
2023-07-18T23:48:15.973Z,5.10
2023-07-18T23:50:44.234Z,5.60
2023-07-18T23:53:12.149Z,5.15
2023-07-18T23:55:43.976Z,5.15
2023-07-18T23:58:12.413Z,5.55
